ミネアポリス・セントポール国際空港の過去48時間の天気

ミネアポリス・セントポール国際空港 (Minneapolis, Minneapolis-St. Paul International Airport)

現在時刻: 5/25 21:27 CDT (5/26 02:27 UTC) 以下の時間は現地時間です。

過去48時間のMETAR気象情報
時間 風向 風速(m/s) 視程 気温(℃) 湿度(%) 気圧(hPa) 天気現象
25 20:53 北北東 5 10km以上 10 89 1011.2 弱い霧雨
25 20:28 北北東 6 10km以上 10 93 1011 弱い霧雨
25 19:53 北北東 7 10km以上 10.6 89 1011.3 弱い霧雨
25 18:53 5 4850m 10.6 92 1011.7 もや
25 18:19 北北東 4 3200m 10.6 92 1012 もや
25 17:53 北北東 5 3200m 10.6 92 1011.7 もや
25 17:41 北北東 5 4000m 10.6 92 1012 もや
25 16:53 北東 5 10km以上 11.1 89 1011.7 もや
25 16:21 北東 4 4850m 11.1 89 1012 もや
25 16:14 北東 4 4000m 11.1 89 1012 もや
25 15:53 東北東 4 4000m 11.1 93 1012.1 もや
25 15:40 3 4850m 11.1 89 1012 もや
25 14:53 北東 5 10km以上 11.7 86 1012.7
25 14:25 東北東 6 10km以上 11.7 83 1013
25 14:05 東北東 5 10km以上 11.7 83 1013
25 13:53 東北東 6 10km以上 11.1 89 1013.3
25 12:53 東北東 7 10km以上 10.6 89 1014 弱い雨
25 11:53 東北東 7 10km以上 10.6 86 1014.6 弱い雨
25 11:36 東北東 7 10km以上 10.6 89 1015 弱い雨
25 11:29 東北東 8 10km以上 10.6 89 1015 弱い雨
25 11:16 東北東 7 8050m 10.6 86 1015 弱い雨 もや
25 10:53 東北東 7 10km以上 10 89 1015.4 弱い雨
25 10:02 東北東 7 8050m 10 89 1016 弱い雨 もや
25 09:53 東北東 7 8050m 10 89 1016.6 弱い雨 もや
25 09:41 東北東 8 8050m 10 89 1017 弱い雨 もや
25 09:07 東北東 6 8050m 10 89 1017 弱い雨 もや
25 08:53 東北東 6 10km以上 10 89 1017.8 弱い雨 もや
25 08:18 東北東 6 10km以上 10 86 1018 弱い雨
25 08:06 東北東 6 10km以上 10 89 1018 弱い雨
25 07:53 東北東 6 10km以上 10 89 1018.1 弱い雨 もや
25 07:39 6 10km以上 10 89 1018 弱い雨 もや
25 07:28 東北東 5 10km以上 10 89 1018 弱い雨 もや
25 07:19 東北東 6 10km以上 9.4 93 1018 弱い雨 もや
25 07:08 東北東 6 10km以上 9.4 90 1018 弱い雨
25 06:53 東北東 6 10km以上 9.4 90 1018.4 弱い雨
25 06:03 東北東 5 10km以上 9.4 90 1018 弱い雨
25 05:53 東北東 7 10km以上 9.4 90 1018.1 弱い雨 もや
25 05:45 東北東 6 10km以上 10 86 1018 弱い雨
25 05:22 東北東 5 10km以上 10 86 1018 弱い雨 もや
25 05:09 東北東 5 10km以上 10 86 1019 弱い雨
25 04:53 5 10km以上 10 86 1019 弱い雨
25 04:39 5 10km以上 10 89 1019 弱い雨 もや
25 03:53 東北東 4 10km以上 10.6 86 1019.7 弱い雨 もや
25 02:58 東南東 8 10km以上 10.6 86 1020 弱い雨
25 02:53 東南東 8 10km以上 11.1 86 1020.3 弱い雨
25 02:37 5 10km以上 11.7 86 1020 弱い雨
25 01:53 南東 3 10km以上 11.7 89 1020.4 弱い雨 もや
25 00:53 5 10km以上 13.3 75 1020.4 弱い雨
24 23:53 4 10km以上 16.1 42 1020
24 22:53 4 10km以上 16.7 38 1020.1
24 21:53 3 10km以上 16.7 36 1020.1
24 20:53 南東 4 10km以上 17.2 31 1020.3
24 19:53 南東 6 10km以上 17.8 28 1020.2
24 18:53 南東 7 10km以上 18.9 28 1020
24 17:53 南東 7 10km以上 19.4 28 1020.3
24 16:53 7 10km以上 20 26 1020.3
24 15:53 南東 7 10km以上 20.6 26 1020.6
24 14:53 東南東 7 10km以上 19.4 27 1021.4
24 13:53 東南東 6 10km以上 19.4 25 1022.2
24 12:53 6 10km以上 18.9 30 1022.8
24 11:53 南東 4 10km以上 18.3 34 1023.3
24 10:53 南東 6 10km以上 17.8 35 1023.3
24 09:53 南東 5 10km以上 16.7 41 1023.6
24 08:53 南東 3 10km以上 14.4 49 1023.9
24 07:53 南東 3 10km以上 12.2 55 1024.4
24 06:53 南東 3 10km以上 11.1 57 1023.9
24 05:53 南東 3 10km以上 11.1 54 1023.8
24 04:53 南東 2 10km以上 11.7 48 1023.7
24 03:53 静穏 0 10km以上 12.2 47 1023.8
24 02:53 南東 3 10km以上 11.7 50 1023.6
24 01:53 南南東 2 10km以上 12.2 47 1023.7
24 00:53 3 10km以上 13.3 42 1023.8
23 23:53 5 10km以上 13.9 39 1023.9
23 22:53 南南東 4 10km以上 13.9 42 1023.9
23 21:53 南南東 3 10km以上 14.4 40 1023.8
KMSP 260153Z 02010KT 10SM -DZ BKN009 OVC013 10/08 A2985 RMK AO2 SLP112 P0000 T01000083
KMSP 260128Z 02012G17KT 10SM -DZ OVC011 10/09 A2985 RMK AO2 P0000 T01000089
KMSP 260053Z 02014G23KT 10SM -DZ BKN009 OVC013 11/09 A2986 RMK AO2 DZB39 SLP113 P0000 T01060089
KMSP 252353Z 01009G19KT 3SM BR OVC008 11/09 A2987 RMK AO2 RAB2257E07 SLP117 PRESENT WX VCSH P0001 60002 T01060094 10117 20106 56004
KMSP 252319Z 02008G17KT 2SM BR BKN007 OVC012 11/09 A2987 RMK AO2 RAB2257E07 PRESENT WX VCSH P0001 T01060094
KMSP 252253Z 03010G20KT 010V070 2SM BR BKN009 OVC013 11/09 A2987 RMK AO2 SLP117 T01060094
KMSP 252241Z 02009G21KT 2 1/2SM BR BKN009 OVC013 11/09 A2987 RMK AO2 T01060094
KMSP 252153Z 04009G20KT 6SM BR OVC011 11/09 A2987 RMK AO2 SLP117 T01110094
KMSP 252121Z 04008G17KT 3SM BR BKN009 OVC012 11/09 A2987 RMK AO2 PRESENT WX VCSH T01110094
KMSP 252114Z 05008KT 2 1/2SM BR OVC012 11/09 A2987 RMK AO2 PRESENT WX VCSH T01110094
KMSP 252053Z 06007KT 2 1/2SM BR BKN009 OVC014 11/10 A2988 RMK AO2 SLP121 PRESENT WX VCSH 60001 T01110100 58019
KMSP 252040Z VRB06G16KT 3SM BR BKN009 OVC014 11/09 A2988 RMK AO2 PRESENT WX VCSH T01110094
KMSP 251953Z 05010G17KT 10SM OVC014 12/09 A2990 RMK AO2 SLP127 PRESENT WX VCSH T01170094
KMSP 251925Z 06011KT 10SM OVC014 12/09 A2990 RMK AO2 PRESENT WX VCSH T01170089
KMSP 251905Z 06010G19KT 10SM OVC015 12/09 A2991 RMK AO2 PRESENT WX VCSH T01170089
KMSP 251853Z 06012G20KT 10SM BKN013 OVC018 11/09 A2992 RMK AO2 RAE22 SLP133 PRESENT WX VCSH P0001 T01110094
KMSP 251753Z 07014G27KT 10SM -RA OVC014 11/09 A2994 RMK AO2 PK WND 09028/1655 SLP140 P0000 60018 T01060089 10106 20094 56026
KMSP 251653Z 06013G23KT 10SM -RA FEW011 OVC014 11/08 A2996 RMK AO2 PK WND 07028/1611 SLP146 P0002 T01060083
KMSP 251636Z 06014KT 8SM -RA OVC014 11/09 A2997 RMK AO2 PK WND 07028/1611 P0002 T01060089
KMSP 251629Z 06016G23KT 7SM -RA BKN016 OVC022 11/09 A2997 RMK AO2 PK WND 07028/1611 P0002 T01060089
KMSP 251616Z 06014G28KT 5SM -RA BR BKN014 BKN020 OVC046 11/08 A2998 RMK AO2 PK WND 07028/1611 P0001 T01060083
KMSP 251553Z 06014G22KT 8SM -RA SCT012 SCT020 OVC035 10/08 A2998 RMK AO2 PK WND 07029/1511 SLP154 P0003 T01000083
KMSP 251502Z 07014G26KT 5SM -RA BR SCT012 BKN047 OVC060 10/08 A3001 RMK AO2 PK WND 06026/1455 P0000 T01000083
KMSP 251453Z 07014G22KT 5SM -RA BR BKN014 OVC060 10/08 A3002 RMK AO2 SLP166 P0006 60013 T01000083 58018
KMSP 251441Z 06016G21KT 5SM -RA BR FEW009 BKN014 OVC065 10/08 A3002 RMK AO2 P0005 T01000083
KMSP 251407Z 07012KT 5SM -RA BR BKN012 OVC017 10/08 A3004 RMK AO2 P0000 T01000083
KMSP 251353Z 07011G21KT 6SM -RA BR OVC015 10/08 A3005 RMK AO2 SLP178 P0003 T01000083
KMSP 251318Z 07012G20KT 7SM -RA FEW010 BKN013 OVC043 10/08 A3006 RMK AO2 P0000 T01000078
KMSP 251306Z 07011G19KT 8SM -RA FEW009 BKN015 OVC055 10/08 A3006 RMK AO2 P0000 T01000083
KMSP 251253Z 06011G20KT 6SM -RA BR BKN012 BKN017 OVC041 10/08 A3006 RMK AO2 SLP181 P0004 T01000083
KMSP 251239Z 08012KT 6SM -RA BR SCT012 BKN017 OVC040 10/08 A3006 RMK AO2 P0003 T01000083
KMSP 251228Z 07009KT 6SM -RA BR FEW009 BKN014 OVC038 10/08 A3006 RMK AO2 P0003 T01000083
KMSP 251219Z 06011G20KT 6SM -RA BR FEW010 BKN014 OVC036 09/08 A3006 RMK AO2 P0002 T00940083
KMSP 251208Z 06011KT 7SM -RA SCT012 OVC036 09/08 A3007 RMK AO2 P0001 T00940078
KMSP 251153Z 06011KT 7SM -RA BKN012 OVC034 09/08 A3007 RMK AO2 PK WND 06027/1056 SLP184 P0005 60034 70034 T00940078 10133 20094 55013
KMSP 251103Z 06010G27KT 7SM -RA FEW009 BKN014 OVC060 09/08 A3007 RMK AO2 PK WND 06027/1056 P0001 T00940078
KMSP 251053Z 06013KT 6SM -RA BR FEW008 BKN015 OVC055 09/08 A3006 RMK AO2 SLP181 P0005 T00940078
KMSP 251045Z 06012KT 7SM -RA FEW008 BKN015 OVC060 10/08 A3006 RMK AO2 P0005 T01000078
KMSP 251022Z 07010KT 6SM -RA BR BKN014 OVC044 10/08 A3007 RMK AO2 P0003 T01000078
KMSP 251009Z 07010KT 7SM -RA SCT017 OVC044 10/08 A3008 RMK AO2 P0002 T01000078
KMSP 250953Z 08010G25KT 7SM -RA SCT017 BKN021 OVC043 10/08 A3009 RMK AO2 SLP190 P0007 T01000078
KMSP 250939Z 08009KT 6SM -RA BR SCT015 BKN020 OVC037 10/08 A3009 RMK AO2 P0006 T01000083
KMSP 250853Z 06008KT 6SM -RA BR SCT017 BKN041 OVC049 11/08 A3011 RMK AO2 SLP197 P0007 60017 T01060083 58008
KMSP 250758Z 11015KT 7SM -RA SCT012 SCT016 OVC060 11/08 A3013 RMK AO2 P0000 T01060083
KMSP 250753Z 11015G22KT 7SM -RA BKN011 BKN019 OVC060 11/09 A3013 RMK AO2 SLP203 P0005 T01110089
KMSP 250737Z 09009KT 7SM -RA BKN011 BKN019 OVC070 12/09 A3012 RMK AO2 P0004 T01170094
KMSP 250653Z 13005KT 6SM -RA BR FEW019 BKN050 OVC070 12/10 A3013 RMK AO2 SLP204 P0005 T01170100
KMSP 250553Z 18009KT 8SM -RA SCT075 OVC095 13/09 A3014 RMK AO2 RAB35 SLP204 P0000 60000 T01330089 10189 20133 402060111 53003
KMSP 250453Z 09008KT 10SM BKN060 BKN120 OVC130 16/03 A3012 RMK AO2 SLP200 T01610033
KMSP 250353Z 08007KT 10SM OVC200 17/02 A3013 RMK AO2 SLP201 T01670022
KMSP 250253Z 08006KT 10SM OVC200 17/02 A3013 RMK AO2 SLP201 T01670017 50002
KMSP 250153Z 13007KT 10SM OVC250 17/00 A3013 RMK AO2 SLP203 T01720000
KMSP 250053Z 14011KT 10SM OVC250 18/M01 A3013 RMK AO2 SLP202 T01781011
KMSP 242353Z 13013G18KT 10SM OVC250 19/00 A3012 RMK AO2 SLP200 T01890000 10206 20183 57007
KMSP 242253Z 13013KT 10SM BKN250 19/01 A3013 RMK AO2 SLP203 T01940006
KMSP 242153Z 10013G22KT 10SM BKN250 20/00 A3013 RMK AO2 SLP203 T02000000
KMSP 242053Z 13014G19KT 10SM BKN250 21/01 A3014 RMK AO2 SLP206 T02060006 58021
KMSP 241953Z 12013G18KT 10SM BKN250 19/00 A3016 RMK AO2 PK WND 07028/1918 SLP214 T01940000
KMSP 241853Z 11011G21KT 10SM BKN250 19/M01 A3019 RMK AO2 SLP222 T01941011
KMSP 241753Z 10012G20KT 10SM FEW065 BKN250 19/01 A3021 RMK AO2 PK WND 13026/1717 SLP228 T01890011 10194 20111 58007
KMSP 241653Z 13007G16KT 10SM FEW060 BKN250 18/02 A3022 RMK AO2 SLP233 T01830022
KMSP 241553Z 14011G21KT 10SM SCT250 18/02 A3022 RMK AO2 SLP233 T01780022
KMSP 241453Z 14010KT 10SM FEW150 FEW250 17/03 A3023 RMK AO2 SLP236 T01670033 58001
KMSP 241353Z 13005KT 10SM SCT150 14/04 A3023 RMK AO2 SLP239 T01440039
KMSP 241253Z 14005KT 10SM BKN150 12/03 A3025 RMK AO2 SLP244 T01220033
KMSP 241153Z 13006KT 10SM SCT110 BKN160 11/03 A3023 RMK AO2 SLP239 T01110028 10133 20111 55000
KMSP 241053Z 13005KT 10SM SCT110 BKN160 11/02 A3023 RMK AO2 SLP238 T01110022
KMSP 240953Z 14003KT 10SM BKN085 OVC110 12/01 A3023 RMK AO2 SLP237 T01170011
KMSP 240853Z 00000KT 10SM BKN160 BKN190 12/01 A3023 RMK AO2 SLP238 T01220011 55000
KMSP 240753Z 14006KT 10SM BKN150 BKN190 12/02 A3022 RMK AO2 SLP236 T01170017
KMSP 240653Z 15004KT 10SM BKN170 BKN190 12/01 A3023 RMK AO2 SLP237 T01220011
KMSP 240553Z 17006KT 10SM BKN170 BKN190 13/01 A3023 RMK AO2 SLP238 T01330006 10172 20133 401890044 50001
KMSP 240453Z 17010KT 10SM BKN170 14/00 A3023 RMK AO2 SLP239 T01390000
KMSP 240353Z 15008KT 10SM BKN170 14/01 A3024 RMK AO2 SLP239 T01390011
KMSP 240253Z 15005KT 10SM BKN180 14/01 A3023 RMK AO2 SLP238 T01440011 53002